sensor_id;sensor_type;location;lat;lon;timestamp;P1;durP1;ratioP1;P2;durP2;ratioP2
44189;SDS011;29856;52.144;5.430;2023-06-04T00:00:16;2.53;;;1.48;;
44189;SDS011;29856;52.144;5.430;2023-06-04T00:02:41;3.15;;;1.45;;
44189;SDS011;29856;52.144;5.430;2023-06-04T00:05:07;6.15;;;1.70;;
44189;SDS011;29856;52.144;5.430;2023-06-04T00:07:33;3.40;;;1.63;;
44189;SDS011;29856;52.144;5.430;2023-06-04T00:09:58;10.10;;;1.90;;
44189;SDS011;29856;52.144;5.430;2023-06-04T00:12:23;4.07;;;1.55;;
44189;SDS011;29856;52.144;5.430;2023-06-04T00:14:49;4.32;;;1.65;;
44189;SDS011;29856;52.144;5.430;2023-06-04T00:17:14;6.10;;;1.70;;
44189;SDS011;29856;52.144;5.430;2023-06-04T00:19:40;4.35;;;1.65;;
44189;SDS011;29856;52.144;5.430;2023-06-04T00:22:05;4.05;;;1.92;;
44189;SDS011;29856;52.144;5.430;2023-06-04T00:24:31;5.68;;;2.75;;
44189;SDS011;29856;52.144;5.430;2023-06-04T00:26:57;3.08;;;1.85;;
44189;SDS011;29856;52.144;5.430;2023-06-04T00:29:23;3.75;;;1.70;;
44189;SDS011;29856;52.144;5.430;2023-06-04T00:31:48;3.42;;;1.67;;
44189;SDS011;29856;52.144;5.430;2023-06-04T00:34:14;4.78;;;1.70;;
44189;SDS011;29856;52.144;5.430;2023-06-04T00:36:39;6.15;;;2.08;;
44189;SDS011;29856;52.144;5.430;2023-06-04T00:39:05;5.05;;;1.60;;
44189;SDS011;29856;52.144;5.430;2023-06-04T00:41:30;6.75;;;2.03;;
44189;SDS011;29856;52.144;5.430;2023-06-04T00:43:56;4.43;;;2.05;;
44189;SDS011;29856;52.144;5.430;2023-06-04T00:46:22;3.00;;;1.75;;
44189;SDS011;29856;52.144;5.430;2023-06-04T00:48:49;2.92;;;1.80;;
44189;SDS011;29856;52.144;5.430;2023-06-04T00:51:14;5.30;;;1.90;;
44189;SDS011;29856;52.144;5.430;2023-06-04T00:53:41;6.03;;;1.80;;
44189;SDS011;29856;52.144;5.430;2023-06-04T00:56:06;4.13;;;1.85;;
44189;SDS011;29856;52.144;5.430;2023-06-04T00:58:33;2.42;;;1.73;;
44189;SDS011;29856;52.144;5.430;2023-06-04T01:01:03;2.38;;;1.83;;
44189;SDS011;29856;52.144;5.430;2023-06-04T01:03:31;5.00;;;1.85;;
44189;SDS011;29856;52.144;5.430;2023-06-04T01:06:04;6.20;;;1.80;;
44189;SDS011;29856;52.144;5.430;2023-06-04T01:08:53;3.15;;;1.70;;
44189;SDS011;29856;52.144;5.430;2023-06-04T01:11:30;3.85;;;1.55;;
44189;SDS011;29856;52.144;5.430;2023-06-04T01:13:56;3.20;;;1.65;;
44189;SDS011;29856;52.144;5.430;2023-06-04T01:16:22;6.38;;;1.63;;
44189;SDS011;29856;52.144;5.430;2023-06-04T01:18:48;2.60;;;1.58;;
44189;SDS011;29856;52.144;5.430;2023-06-04T01:21:14;5.07;;;1.50;;
44189;SDS011;29856;52.144;5.430;2023-06-04T01:23:46;3.65;;;1.60;;
44189;SDS011;29856;52.144;5.430;2023-06-04T01:26:14;5.22;;;1.88;;
44189;SDS011;29856;52.144;5.430;2023-06-04T01:28:40;4.72;;;1.65;;
44189;SDS011;29856;52.144;5.430;2023-06-04T01:31:06;3.90;;;1.80;;
44189;SDS011;29856;52.144;5.430;2023-06-04T01:33:33;3.05;;;2.17;;
44189;SDS011;29856;52.144;5.430;2023-06-04T01:35:59;3.72;;;1.83;;
44189;SDS011;29856;52.144;5.430;2023-06-04T01:38:24;2.67;;;1.75;;
44189;SDS011;29856;52.144;5.430;2023-06-04T01:40:50;3.00;;;2.10;;
44189;SDS011;29856;52.144;5.430;2023-06-04T01:43:15;3.30;;;1.90;;
44189;SDS011;29856;52.144;5.430;2023-06-04T01:45:41;7.85;;;2.47;;
44189;SDS011;29856;52.144;5.430;2023-06-04T01:48:07;3.20;;;1.60;;
44189;SDS011;29856;52.144;5.430;2023-06-04T01:50:33;2.78;;;2.00;;
44189;SDS011;29856;52.144;5.430;2023-06-04T01:52:59;3.13;;;1.90;;
44189;SDS011;29856;52.144;5.430;2023-06-04T01:55:24;3.72;;;2.15;;
44189;SDS011;29856;52.144;5.430;2023-06-04T01:57:50;5.53;;;2.10;;
44189;SDS011;29856;52.144;5.430;2023-06-04T02:00:16;5.10;;;1.92;;
44189;SDS011;29856;52.144;5.430;2023-06-04T02:02:42;3.08;;;1.73;;
44189;SDS011;29856;52.144;5.430;2023-06-04T02:05:10;2.58;;;2.05;;
44189;SDS011;29856;52.144;5.430;2023-06-04T02:07:36;3.92;;;1.90;;
44189;SDS011;29856;52.144;5.430;2023-06-04T02:10:09;3.60;;;2.05;;
44189;SDS011;29856;52.144;5.430;2023-06-04T02:12:39;2.78;;;2.10;;
44189;SDS011;29856;52.144;5.430;2023-06-04T02:15:06;4.03;;;1.80;;
44189;SDS011;29856;52.144;5.430;2023-06-04T02:17:34;2.42;;;2.00;;
44189;SDS011;29856;52.144;5.430;2023-06-04T02:20:00;4.90;;;2.03;;
44189;SDS011;29856;52.144;5.430;2023-06-04T02:22:25;3.75;;;2.33;;
44189;SDS011;29856;52.144;5.430;2023-06-04T02:24:51;4.22;;;1.80;;
44189;SDS011;29856;52.144;5.430;2023-06-04T02:27:17;5.03;;;2.20;;
44189;SDS011;29856;52.144;5.430;2023-06-04T02:29:42;3.10;;;2.03;;
44189;SDS011;29856;52.144;5.430;2023-06-04T02:32:08;3.95;;;1.98;;
44189;SDS011;29856;52.144;5.430;2023-06-04T02:34:34;4.22;;;1.90;;
44189;SDS011;29856;52.144;5.430;2023-06-04T02:37:00;4.63;;;1.90;;
44189;SDS011;29856;52.144;5.430;2023-06-04T02:39:26;2.47;;;1.90;;
44189;SDS011;29856;52.144;5.430;2023-06-04T02:41:52;2.22;;;1.70;;
44189;SDS011;29856;52.144;5.430;2023-06-04T02:44:17;4.80;;;2.58;;
44189;SDS011;29856;52.144;5.430;2023-06-04T02:46:43;3.30;;;2.15;;
44189;SDS011;29856;52.144;5.430;2023-06-04T02:49:09;5.43;;;2.15;;
44189;SDS011;29856;52.144;5.430;2023-06-04T02:51:35;4.10;;;2.40;;
44189;SDS011;29856;52.144;5.430;2023-06-04T02:54:00;5.10;;;2.63;;
44189;SDS011;29856;52.144;5.430;2023-06-04T02:56:26;7.22;;;2.65;;
44189;SDS011;29856;52.144;5.430;2023-06-04T02:58:52;4.95;;;2.30;;
44189;SDS011;29856;52.144;5.430;2023-06-04T03:01:25;6.18;;;2.20;;
44189;SDS011;29856;52.144;5.430;2023-06-04T03:03:51;3.70;;;2.47;;
44189;SDS011;29856;52.144;5.430;2023-06-04T03:06:18;3.45;;;2.33;;
44189;SDS011;29856;52.144;5.430;2023-06-04T03:08:44;3.17;;;1.90;;
44189;SDS011;29856;52.144;5.430;2023-06-04T03:11:10;4.45;;;2.60;;
44189;SDS011;29856;52.144;5.430;2023-06-04T03:13:35;6.70;;;2.50;;
44189;SDS011;29856;52.144;5.430;2023-06-04T03:16:01;3.40;;;2.30;;
44189;SDS011;29856;52.144;5.430;2023-06-04T03:18:27;4.22;;;2.30;;
44189;SDS011;29856;52.144;5.430;2023-06-04T03:20:53;2.25;;;2.05;;
44189;SDS011;29856;52.144;5.430;2023-06-04T03:23:19;5.40;;;2.50;;
44189;SDS011;29856;52.144;5.430;2023-06-04T03:25:46;4.63;;;2.83;;
44189;SDS011;29856;52.144;5.430;2023-06-04T03:28:11;5.05;;;2.30;;
44189;SDS011;29856;52.144;5.430;2023-06-04T03:30:37;6.65;;;2.20;;
44189;SDS011;29856;52.144;5.430;2023-06-04T03:33:02;4.13;;;2.58;;
44189;SDS011;29856;52.144;5.430;2023-06-04T03:35:28;2.50;;;2.30;;
44189;SDS011;29856;52.144;5.430;2023-06-04T03:37:54;6.82;;;2.60;;
44189;SDS011;29856;52.144;5.430;2023-06-04T03:40:19;5.45;;;3.00;;
44189;SDS011;29856;52.144;5.430;2023-06-04T03:42:45;4.70;;;2.33;;
44189;SDS011;29856;52.144;5.430;2023-06-04T03:45:10;5.35;;;2.65;;
44189;SDS011;29856;52.144;5.430;2023-06-04T03:47:37;4.43;;;2.58;;
44189;SDS011;29856;52.144;5.430;2023-06-04T03:50:04;7.60;;;3.00;;
44189;SDS011;29856;52.144;5.430;2023-06-04T03:52:30;4.95;;;2.40;;
44189;SDS011;29856;52.144;5.430;2023-06-04T03:54:55;3.75;;;2.42;;
44189;SDS011;29856;52.144;5.430;2023-06-04T03:57:21;5.05;;;2.92;;
44189;SDS011;29856;52.144;5.430;2023-06-04T03:59:46;4.13;;;2.13;;
44189;SDS011;29856;52.144;5.430;2023-06-04T04:02:11;4.57;;;2.65;;
44189;SDS011;29856;52.144;5.430;2023-06-04T04:04:37;4.78;;;2.00;;
44189;SDS011;29856;52.144;5.430;2023-06-04T04:07:02;7.40;;;2.95;;
44189;SDS011;29856;52.144;5.430;2023-06-04T04:09:28;7.60;;;2.80;;
44189;SDS011;29856;52.144;5.430;2023-06-04T04:11:53;5.03;;;2.22;;
44189;SDS011;29856;52.144;5.430;2023-06-04T04:14:19;6.28;;;2.80;;
44189;SDS011;29856;52.144;5.430;2023-06-04T04:16:44;5.80;;;2.90;;
44189;SDS011;29856;52.144;5.430;2023-06-04T04:19:10;7.05;;;3.00;;
44189;SDS011;29856;52.144;5.430;2023-06-04T04:21:35;6.75;;;2.72;;
44189;SDS011;29856;52.144;5.430;2023-06-04T04:24:02;5.03;;;3.20;;
44189;SDS011;29856;52.144;5.430;2023-06-04T04:26:30;3.80;;;2.53;;
44189;SDS011;29856;52.144;5.430;2023-06-04T04:28:56;8.77;;;2.83;;
44189;SDS011;29856;52.144;5.430;2023-06-04T04:31:21;4.95;;;3.20;;
44189;SDS011;29856;52.144;5.430;2023-06-04T04:33:47;9.20;;;3.45;;
44189;SDS011;29856;52.144;5.430;2023-06-04T04:36:12;7.15;;;3.13;;
44189;SDS011;29856;52.144;5.430;2023-06-04T04:38:38;5.82;;;2.95;;
44189;SDS011;29856;52.144;5.430;2023-06-04T04:41:03;7.00;;;3.08;;
44189;SDS011;29856;52.144;5.430;2023-06-04T04:43:32;6.95;;;2.80;;
44189;SDS011;29856;52.144;5.430;2023-06-04T04:45:59;5.35;;;3.05;;
44189;SDS011;29856;52.144;5.430;2023-06-04T04:48:25;6.80;;;2.97;;
44189;SDS011;29856;52.144;5.430;2023-06-04T04:50:50;7.28;;;3.22;;
44189;SDS011;29856;52.144;5.430;2023-06-04T04:53:16;7.13;;;2.75;;
44189;SDS011;29856;52.144;5.430;2023-06-04T04:55:41;8.90;;;3.17;;
44189;SDS011;29856;52.144;5.430;2023-06-04T04:58:06;8.68;;;3.13;;
44189;SDS011;29856;52.144;5.430;2023-06-04T05:00:32;6.15;;;3.17;;
44189;SDS011;29856;52.144;5.430;2023-06-04T05:02:57;8.77;;;3.25;;
44189;SDS011;29856;52.144;5.430;2023-06-04T05:05:23;8.02;;;2.92;;
44189;SDS011;29856;52.144;5.430;2023-06-04T05:07:49;8.98;;;3.45;;
44189;SDS011;29856;52.144;5.430;2023-06-04T05:10:14;10.07;;;3.35;;
44189;SDS011;29856;52.144;5.430;2023-06-04T05:12:49;7.07;;;3.40;;
44189;SDS011;29856;52.144;5.430;2023-06-04T05:15:22;5.20;;;3.15;;
44189;SDS011;29856;52.144;5.430;2023-06-04T05:17:48;5.95;;;3.17;;
44189;SDS011;29856;52.144;5.430;2023-06-04T05:20:13;7.03;;;2.90;;
44189;SDS011;29856;52.144;5.430;2023-06-04T05:22:39;7.68;;;3.05;;
44189;SDS011;29856;52.144;5.430;2023-06-04T05:25:04;11.85;;;3.60;;
44189;SDS011;29856;52.144;5.430;2023-06-04T05:27:30;5.88;;;3.13;;
44189;SDS011;29856;52.144;5.430;2023-06-04T05:29:56;8.50;;;3.30;;
44189;SDS011;29856;52.144;5.430;2023-06-04T05:32:21;5.65;;;2.78;;
44189;SDS011;29856;52.144;5.430;2023-06-04T05:34:46;7.72;;;3.33;;
44189;SDS011;29856;52.144;5.430;2023-06-04T05:37:12;10.65;;;2.90;;
44189;SDS011;29856;52.144;5.430;2023-06-04T05:39:37;6.47;;;3.17;;
44189;SDS011;29856;52.144;5.430;2023-06-04T05:42:03;10.68;;;3.30;;
44189;SDS011;29856;52.144;5.430;2023-06-04T05:44:28;9.88;;;3.22;;
44189;SDS011;29856;52.144;5.430;2023-06-04T05:46:54;5.70;;;3.50;;
44189;SDS011;29856;52.144;5.430;2023-06-04T05:49:19;6.95;;;3.10;;
44189;SDS011;29856;52.144;5.430;2023-06-04T05:51:45;12.55;;;3.17;;
44189;SDS011;29856;52.144;5.430;2023-06-04T05:54:10;5.50;;;3.15;;
44189;SDS011;29856;52.144;5.430;2023-06-04T05:56:36;8.18;;;3.03;;
44189;SDS011;29856;52.144;5.430;2023-06-04T05:59:01;8.38;;;3.05;;
44189;SDS011;29856;52.144;5.430;2023-06-04T06:01:26;6.63;;;2.78;;
44189;SDS011;29856;52.144;5.430;2023-06-04T06:03:52;7.13;;;2.92;;
44189;SDS011;29856;52.144;5.430;2023-06-04T06:06:17;7.80;;;3.00;;
44189;SDS011;29856;52.144;5.430;2023-06-04T06:08:43;6.18;;;3.03;;
44189;SDS011;29856;52.144;5.430;2023-06-04T06:11:08;8.85;;;3.28;;
44189;SDS011;29856;52.144;5.430;2023-06-04T06:13:34;6.28;;;3.17;;
44189;SDS011;29856;52.144;5.430;2023-06-04T06:15:59;8.00;;;2.78;;
44189;SDS011;29856;52.144;5.430;2023-06-04T06:18:25;7.47;;;2.78;;
44189;SDS011;29856;52.144;5.430;2023-06-04T06:20:50;6.68;;;2.85;;
44189;SDS011;29856;52.144;5.430;2023-06-04T06:23:15;5.70;;;2.50;;
44189;SDS011;29856;52.144;5.430;2023-06-04T06:25:41;7.93;;;2.60;;
44189;SDS011;29856;52.144;5.430;2023-06-04T06:28:06;12.45;;;2.92;;
44189;SDS011;29856;52.144;5.430;2023-06-04T06:30:32;5.47;;;2.70;;
44189;SDS011;29856;52.144;5.430;2023-06-04T06:32:57;5.13;;;2.67;;
44189;SDS011;29856;52.144;5.430;2023-06-04T06:35:23;5.93;;;2.45;;
44189;SDS011;29856;52.144;5.430;2023-06-04T06:37:48;9.77;;;2.80;;
44189;SDS011;29856;52.144;5.430;2023-06-04T06:40:14;13.50;;;3.22;;
44189;SDS011;29856;52.144;5.430;2023-06-04T06:42:39;5.75;;;2.45;;
44189;SDS011;29856;52.144;5.430;2023-06-04T06:45:05;5.68;;;2.50;;
44189;SDS011;29856;52.144;5.430;2023-06-04T06:47:31;4.90;;;2.53;;
44189;SDS011;29856;52.144;5.430;2023-06-04T06:49:56;8.73;;;3.10;;
44189;SDS011;29856;52.144;5.430;2023-06-04T06:52:22;7.72;;;2.63;;
44189;SDS011;29856;52.144;5.430;2023-06-04T06:54:47;8.60;;;2.85;;
44189;SDS011;29856;52.144;5.430;2023-06-04T06:57:13;7.47;;;2.83;;
44189;SDS011;29856;52.144;5.430;2023-06-04T06:59:38;6.55;;;2.53;;
44189;SDS011;29856;52.144;5.430;2023-06-04T07:02:04;5.90;;;2.63;;
44189;SDS011;29856;52.144;5.430;2023-06-04T07:04:30;5.30;;;2.10;;
44189;SDS011;29856;52.144;5.430;2023-06-04T07:06:55;6.25;;;2.40;;
44189;SDS011;29856;52.144;5.430;2023-06-04T07:09:21;4.97;;;2.47;;
44189;SDS011;29856;52.144;5.430;2023-06-04T07:11:46;6.45;;;2.22;;
44189;SDS011;29856;52.144;5.430;2023-06-04T07:14:12;7.15;;;2.00;;
44189;SDS011;29856;52.144;5.430;2023-06-04T07:16:37;5.93;;;2.72;;
44189;SDS011;29856;52.144;5.430;2023-06-04T07:19:03;11.32;;;2.47;;
44189;SDS011;29856;52.144;5.430;2023-06-04T07:21:28;6.03;;;2.40;;
44189;SDS011;29856;52.144;5.430;2023-06-04T07:23:54;7.32;;;2.58;;
44189;SDS011;29856;52.144;5.430;2023-06-04T07:26:19;9.00;;;2.90;;
44189;SDS011;29856;52.144;5.430;2023-06-04T07:28:45;4.97;;;2.03;;
44189;SDS011;29856;52.144;5.430;2023-06-04T07:31:10;8.50;;;2.47;;
44189;SDS011;29856;52.144;5.430;2023-06-04T07:33:36;4.25;;;2.35;;
44189;SDS011;29856;52.144;5.430;2023-06-04T07:36:01;4.53;;;2.20;;
44189;SDS011;29856;52.144;5.430;2023-06-04T07:38:27;8.30;;;2.50;;
44189;SDS011;29856;52.144;5.430;2023-06-04T07:40:52;3.92;;;2.22;;
44189;SDS011;29856;52.144;5.430;2023-06-04T07:43:17;6.35;;;2.00;;
44189;SDS011;29856;52.144;5.430;2023-06-04T07:45:43;6.22;;;2.00;;
44189;SDS011;29856;52.144;5.430;2023-06-04T07:48:11;5.60;;;2.22;;
44189;SDS011;29856;52.144;5.430;2023-06-04T07:50:37;4.50;;;2.10;;
44189;SDS011;29856;52.144;5.430;2023-06-04T07:53:02;4.13;;;1.58;;
44189;SDS011;29856;52.144;5.430;2023-06-04T07:55:28;4.72;;;1.83;;
44189;SDS011;29856;52.144;5.430;2023-06-04T07:57:54;4.63;;;1.75;;
44189;SDS011;29856;52.144;5.430;2023-06-04T08:00:19;5.10;;;1.70;;
44189;SDS011;29856;52.144;5.430;2023-06-04T08:02:45;6.40;;;1.80;;
44189;SDS011;29856;52.144;5.430;2023-06-04T08:05:10;6.10;;;2.03;;
44189;SDS011;29856;52.144;5.430;2023-06-04T08:07:36;6.20;;;2.05;;
44189;SDS011;29856;52.144;5.430;2023-06-04T08:10:01;10.38;;;2.67;;
44189;SDS011;29856;52.144;5.430;2023-06-04T08:12:27;7.35;;;2.83;;
44189;SDS011;29856;52.144;5.430;2023-06-04T08:14:52;9.40;;;2.00;;
44189;SDS011;29856;52.144;5.430;2023-06-04T08:17:17;4.00;;;1.95;;
44189;SDS011;29856;52.144;5.430;2023-06-04T08:19:43;6.40;;;2.00;;
44189;SDS011;29856;52.144;5.430;2023-06-04T08:22:08;7.47;;;2.05;;
44189;SDS011;29856;52.144;5.430;2023-06-04T08:24:34;7.30;;;1.98;;
44189;SDS011;29856;52.144;5.430;2023-06-04T08:26:59;5.47;;;1.85;;
44189;SDS011;29856;52.144;5.430;2023-06-04T08:29:25;5.10;;;2.05;;
44189;SDS011;29856;52.144;5.430;2023-06-04T08:31:50;6.35;;;2.40;;
44189;SDS011;29856;52.144;5.430;2023-06-04T08:34:16;5.75;;;1.90;;
44189;SDS011;29856;52.144;5.430;2023-06-04T08:36:41;11.20;;;1.95;;
44189;SDS011;29856;52.144;5.430;2023-06-04T08:39:07;5.68;;;2.60;;
44189;SDS011;29856;52.144;5.430;2023-06-04T08:41:47;7.95;;;2.42;;
44189;SDS011;29856;52.144;5.430;2023-06-04T08:44:16;7.28;;;2.15;;
44189;SDS011;29856;52.144;5.430;2023-06-04T08:46:42;4.35;;;1.77;;
44189;SDS011;29856;52.144;5.430;2023-06-04T08:49:09;7.30;;;2.63;;
44189;SDS011;29856;52.144;5.430;2023-06-04T08:51:37;9.45;;;1.67;;
44189;SDS011;29856;52.144;5.430;2023-06-04T08:54:04;3.78;;;1.63;;
44189;SDS011;29856;52.144;5.430;2023-06-04T08:56:30;5.22;;;1.73;;
44189;SDS011;29856;52.144;5.430;2023-06-04T08:58:56;11.13;;;1.92;;
44189;SDS011;29856;52.144;5.430;2023-06-04T09:01:25;3.17;;;1.63;;
44189;SDS011;29856;52.144;5.430;2023-06-04T09:03:51;4.40;;;1.77;;
44189;SDS011;29856;52.144;5.430;2023-06-04T09:06:17;5.93;;;2.03;;
44189;SDS011;29856;52.144;5.430;2023-06-04T09:08:43;6.78;;;2.17;;
44189;SDS011;29856;52.144;5.430;2023-06-04T09:11:10;4.85;;;1.85;;
44189;SDS011;29856;52.144;5.430;2023-06-04T09:13:40;4.60;;;1.75;;
44189;SDS011;29856;52.144;5.430;2023-06-04T09:16:08;9.73;;;2.25;;
44189;SDS011;29856;52.144;5.430;2023-06-04T09:18:33;5.07;;;1.90;;
44189;SDS011;29856;52.144;5.430;2023-06-04T09:21:03;5.70;;;1.60;;
44189;SDS011;29856;52.144;5.430;2023-06-04T09:23:45;5.85;;;1.85;;
44189;SDS011;29856;52.144;5.430;2023-06-04T09:26:11;5.18;;;1.35;;
44189;SDS011;29856;52.144;5.430;2023-06-04T09:28:44;6.95;;;1.70;;
44189;SDS011;29856;52.144;5.430;2023-06-04T09:31:13;5.32;;;1.50;;
44189;SDS011;29856;52.144;5.430;2023-06-04T09:33:43;5.82;;;1.88;;
44189;SDS011;29856;52.144;5.430;2023-06-04T09:36:09;7.00;;;1.83;;
44189;SDS011;29856;52.144;5.430;2023-06-04T09:38:35;5.55;;;1.65;;
44189;SDS011;29856;52.144;5.430;2023-06-04T09:41:00;2.55;;;1.33;;
44189;SDS011;29856;52.144;5.430;2023-06-04T09:43:26;6.93;;;1.85;;
44189;SDS011;29856;52.144;5.430;2023-06-04T09:46:07;6.10;;;1.73;;
44189;SDS011;29856;52.144;5.430;2023-06-04T09:48:39;7.78;;;1.50;;
44189;SDS011;29856;52.144;5.430;2023-06-04T09:53:34;2.72;;;1.55;;
44189;SDS011;29856;52.144;5.430;2023-06-04T09:56:00;5.85;;;1.75;;
44189;SDS011;29856;52.144;5.430;2023-06-04T09:58:27;6.00;;;1.73;;
44189;SDS011;29856;52.144;5.430;2023-06-04T10:00:56;5.82;;;1.73;;
44189;SDS011;29856;52.144;5.430;2023-06-04T10:03:25;2.95;;;1.33;;
44189;SDS011;29856;52.144;5.430;2023-06-04T10:05:59;9.38;;;1.85;;
44189;SDS011;29856;52.144;5.430;2023-06-04T10:08:25;4.40;;;1.65;;
44189;SDS011;29856;52.144;5.430;2023-06-04T10:10:53;3.20;;;1.63;;
44189;SDS011;29856;52.144;5.430;2023-06-04T10:13:21;6.75;;;1.58;;
44189;SDS011;29856;52.144;5.430;2023-06-04T10:15:51;7.95;;;1.70;;
44189;SDS011;29856;52.144;5.430;2023-06-04T10:18:17;5.88;;;1.70;;
44189;SDS011;29856;52.144;5.430;2023-06-04T10:20:43;3.63;;;1.52;;
44189;SDS011;29856;52.144;5.430;2023-06-04T10:23:09;4.05;;;1.30;;
44189;SDS011;29856;52.144;5.430;2023-06-04T10:25:39;3.80;;;1.70;;
44189;SDS011;29856;52.144;5.430;2023-06-04T10:28:04;3.00;;;1.20;;
44189;SDS011;29856;52.144;5.430;2023-06-04T10:30:30;3.95;;;1.50;;
44189;SDS011;29856;52.144;5.430;2023-06-04T10:32:56;3.70;;;1.50;;
44189;SDS011;29856;52.144;5.430;2023-06-04T10:40:35;2.10;;;1.20;;
44189;SDS011;29856;52.144;5.430;2023-06-04T10:43:08;2.03;;;1.23;;
44189;SDS011;29856;52.144;5.430;2023-06-04T10:45:35;3.28;;;1.50;;
44189;SDS011;29856;52.144;5.430;2023-06-04T10:48:05;12.45;;;2.35;;
44189;SDS011;29856;52.144;5.430;2023-06-04T10:50:32;4.10;;;1.45;;
44189;SDS011;29856;52.144;5.430;2023-06-04T10:52:59;4.10;;;1.20;;
44189;SDS011;29856;52.144;5.430;2023-06-04T10:55:25;4.68;;;1.33;;
44189;SDS011;29856;52.144;5.430;2023-06-04T10:57:51;3.40;;;1.45;;
44189;SDS011;29856;52.144;5.430;2023-06-04T11:00:17;3.78;;;1.45;;
44189;SDS011;29856;52.144;5.430;2023-06-04T11:02:53;3.50;;;1.30;;
44189;SDS011;29856;52.144;5.430;2023-06-04T11:05:19;6.07;;;1.83;;
44189;SDS011;29856;52.144;5.430;2023-06-04T11:07:45;5.65;;;1.70;;
44189;SDS011;29856;52.144;5.430;2023-06-04T11:10:12;5.13;;;1.50;;
44189;SDS011;29856;52.144;5.430;2023-06-04T11:12:41;4.72;;;1.50;;
44189;SDS011;29856;52.144;5.430;2023-06-04T11:15:10;2.55;;;1.42;;
44189;SDS011;29856;52.144;5.430;2023-06-04T11:17:36;5.97;;;1.80;;
44189;SDS011;29856;52.144;5.430;2023-06-04T11:20:01;4.70;;;1.75;;
44189;SDS011;29856;52.144;5.430;2023-06-04T11:22:27;5.65;;;2.88;;
44189;SDS011;29856;52.144;5.430;2023-06-04T11:24:59;3.10;;;1.30;;
44189;SDS011;29856;52.144;5.430;2023-06-04T11:27:25;5.15;;;1.80;;
44189;SDS011;29856;52.144;5.430;2023-06-04T11:29:53;4.10;;;1.65;;
44189;SDS011;29856;52.144;5.430;2023-06-04T11:32:25;2.78;;;1.52;;
44189;SDS011;29856;52.144;5.430;2023-06-04T11:34:50;9.07;;;1.95;;
44189;SDS011;29856;52.144;5.430;2023-06-04T11:37:16;2.47;;;1.30;;
44189;SDS011;29856;52.144;5.430;2023-06-04T11:39:41;3.80;;;1.67;;
44189;SDS011;29856;52.144;5.430;2023-06-04T11:42:07;7.50;;;1.50;;
44189;SDS011;29856;52.144;5.430;2023-06-04T11:44:32;6.80;;;1.70;;
44189;SDS011;29856;52.144;5.430;2023-06-04T11:46:58;3.58;;;1.60;;
44189;SDS011;29856;52.144;5.430;2023-06-04T11:49:24;2.80;;;1.30;;
44189;SDS011;29856;52.144;5.430;2023-06-04T11:51:50;4.53;;;1.50;;
44189;SDS011;29856;52.144;5.430;2023-06-04T11:54:17;4.10;;;1.50;;
44189;SDS011;29856;52.144;5.430;2023-06-04T11:56:45;2.25;;;1.45;;
44189;SDS011;29856;52.144;5.430;2023-06-04T11:59:13;3.72;;;1.40;;
44189;SDS011;29856;52.144;5.430;2023-06-04T12:01:40;2.05;;;1.40;;
44189;SDS011;29856;52.144;5.430;2023-06-04T12:04:12;3.22;;;1.40;;
44189;SDS011;29856;52.144;5.430;2023-06-04T12:06:39;3.72;;;1.50;;
44189;SDS011;29856;52.144;5.430;2023-06-04T12:09:19;3.17;;;1.45;;
44189;SDS011;29856;52.144;5.430;2023-06-04T12:11:45;4.72;;;1.60;;
44189;SDS011;29856;52.144;5.430;2023-06-04T12:14:15;20.05;;;1.85;;
44189;SDS011;29856;52.144;5.430;2023-06-04T12:16:42;1.70;;;1.20;;
44189;SDS011;29856;52.144;5.430;2023-06-04T12:19:10;3.50;;;1.50;;
44189;SDS011;29856;52.144;5.430;2023-06-04T12:21:37;5.32;;;1.27;;
44189;SDS011;29856;52.144;5.430;2023-06-04T12:24:09;1.67;;;1.42;;
44189;SDS011;29856;52.144;5.430;2023-06-04T12:26:35;2.42;;;1.17;;
44189;SDS011;29856;52.144;5.430;2023-06-04T12:29:02;5.50;;;1.90;;
44189;SDS011;29856;52.144;5.430;2023-06-04T12:31:31;3.40;;;1.20;;
44189;SDS011;29856;52.144;5.430;2023-06-04T12:33:57;3.33;;;1.35;;
44189;SDS011;29856;52.144;5.430;2023-06-04T12:36:23;5.85;;;1.77;;
44189;SDS011;29856;52.144;5.430;2023-06-04T12:38:49;6.25;;;1.67;;
44189;SDS011;29856;52.144;5.430;2023-06-04T12:41:14;5.80;;;2.03;;
44189;SDS011;29856;52.144;5.430;2023-06-04T12:43:40;4.88;;;1.75;;
44189;SDS011;29856;52.144;5.430;2023-06-04T12:46:05;4.60;;;1.60;;
44189;SDS011;29856;52.144;5.430;2023-06-04T12:48:31;3.05;;;1.40;;
44189;SDS011;29856;52.144;5.430;2023-06-04T12:50:56;3.85;;;1.35;;
44189;SDS011;29856;52.144;5.430;2023-06-04T12:53:22;3.75;;;1.33;;
44189;SDS011;29856;52.144;5.430;2023-06-04T12:55:47;7.68;;;1.80;;
44189;SDS011;29856;52.144;5.430;2023-06-04T12:58:12;4.30;;;1.52;;
44189;SDS011;29856;52.144;5.430;2023-06-04T13:00:38;2.88;;;1.33;;
44189;SDS011;29856;52.144;5.430;2023-06-04T13:03:03;3.75;;;1.33;;
44189;SDS011;29856;52.144;5.430;2023-06-04T13:05:29;5.05;;;1.70;;
44189;SDS011;29856;52.144;5.430;2023-06-04T13:07:54;3.95;;;1.40;;
44189;SDS011;29856;52.144;5.430;2023-06-04T13:10:20;3.10;;;1.90;;
44189;SDS011;29856;52.144;5.430;2023-06-04T13:12:45;6.05;;;1.48;;
44189;SDS011;29856;52.144;5.430;2023-06-04T13:15:11;4.68;;;1.50;;
44189;SDS011;29856;52.144;5.430;2023-06-04T13:17:36;3.13;;;1.55;;
44189;SDS011;29856;52.144;5.430;2023-06-04T13:20:01;2.78;;;1.65;;
44189;SDS011;29856;52.144;5.430;2023-06-04T13:22:27;4.13;;;1.42;;
44189;SDS011;29856;52.144;5.430;2023-06-04T13:24:52;5.05;;;2.10;;
44189;SDS011;29856;52.144;5.430;2023-06-04T13:27:18;7.03;;;2.13;;
44189;SDS011;29856;52.144;5.430;2023-06-04T13:29:43;3.60;;;1.58;;
44189;SDS011;29856;52.144;5.430;2023-06-04T13:32:09;6.30;;;1.80;;
44189;SDS011;29856;52.144;5.430;2023-06-04T13:34:34;4.68;;;1.80;;
44189;SDS011;29856;52.144;5.430;2023-06-04T13:37:00;4.20;;;1.42;;
44189;SDS011;29856;52.144;5.430;2023-06-04T13:39:25;3.72;;;1.40;;
44189;SDS011;29856;52.144;5.430;2023-06-04T13:41:51;6.30;;;1.60;;
44189;SDS011;29856;52.144;5.430;2023-06-04T13:44:16;3.60;;;1.50;;
44189;SDS011;29856;52.144;5.430;2023-06-04T13:46:42;8.13;;;2.10;;
44189;SDS011;29856;52.144;5.430;2023-06-04T13:49:07;5.38;;;1.38;;
44189;SDS011;29856;52.144;5.430;2023-06-04T13:51:33;6.28;;;1.95;;
44189;SDS011;29856;52.144;5.430;2023-06-04T13:53:58;5.82;;;1.92;;
44189;SDS011;29856;52.144;5.430;2023-06-04T13:56:24;5.28;;;1.95;;
44189;SDS011;29856;52.144;5.430;2023-06-04T13:58:49;4.28;;;1.42;;
44189;SDS011;29856;52.144;5.430;2023-06-04T14:01:15;6.25;;;1.90;;
44189;SDS011;29856;52.144;5.430;2023-06-04T14:03:40;2.85;;;1.67;;
44189;SDS011;29856;52.144;5.430;2023-06-04T14:06:06;4.45;;;1.70;;
44189;SDS011;29856;52.144;5.430;2023-06-04T14:08:31;6.60;;;1.70;;
44189;SDS011;29856;52.144;5.430;2023-06-04T14:10:57;5.10;;;1.70;;
44189;SDS011;29856;52.144;5.430;2023-06-04T14:13:22;9.15;;;1.83;;
44189;SDS011;29856;52.144;5.430;2023-06-04T14:15:47;3.63;;;1.60;;
44189;SDS011;29856;52.144;5.430;2023-06-04T14:18:13;15.85;;;2.65;;
44189;SDS011;29856;52.144;5.430;2023-06-04T14:20:38;3.30;;;1.70;;
44189;SDS011;29856;52.144;5.430;2023-06-04T14:23:04;16.42;;;2.65;;
44189;SDS011;29856;52.144;5.430;2023-06-04T14:25:29;7.65;;;2.10;;
44189;SDS011;29856;52.144;5.430;2023-06-04T14:27:55;3.05;;;1.60;;
44189;SDS011;29856;52.144;5.430;2023-06-04T14:30:20;4.07;;;1.70;;
44189;SDS011;29856;52.144;5.430;2023-06-04T14:32:46;4.13;;;2.33;;
44189;SDS011;29856;52.144;5.430;2023-06-04T14:35:11;2.38;;;1.50;;
44189;SDS011;29856;52.144;5.430;2023-06-04T14:37:37;6.70;;;1.70;;
44189;SDS011;29856;52.144;5.430;2023-06-04T14:40:02;4.63;;;1.60;;
44189;SDS011;29856;52.144;5.430;2023-06-04T14:42:28;3.35;;;1.45;;
44189;SDS011;29856;52.144;5.430;2023-06-04T14:44:53;3.50;;;1.55;;
44189;SDS011;29856;52.144;5.430;2023-06-04T14:47:19;5.53;;;2.03;;
44189;SDS011;29856;52.144;5.430;2023-06-04T14:49:44;6.18;;;1.67;;